Buoy 41602

sailwx.info

Track history (hours):
 
Tides and Currents Weather Stations Pressure Air Temp Water Temp Dewpoint Dewpoint Depression Visibility Wind Speed Wind Dir Waves Ship Positions

Drifting buoy 41602

Last reported at 2014-Oct-21 09:01 UTC. Time now 2014-Oct-21 13:47 UTC.
Position N 33°02' W 049°53'.

Date/timePositionNaut miles runAvg speedWind from/ knotsBaromVisibWave heightAir tempDewpointWater temp
2014-Oct-21 09:01N 33°02' W 049°53'0 0.9
2014-Oct-21 08:31N 33°02' W 049°54'0 0.9
2014-Oct-21 08:01N 33°01' W 049°54'0 0.9
2014-Oct-21 07:31N 33°01' W 049°55'0 0.9
2014-Oct-21 07:01N 33°01' W 049°55'1 0.9
2014-Oct-21 05:31N 32°60' W 049°56'0 0.9
2014-Oct-21 05:01N 32°59' W 049°56'1 1.1
2014-Oct-21 04:30N 32°59' W 049°57'0 1.0
2014-Oct-21 04:00N 32°58' W 049°57'0 1.0
2014-Oct-21 03:31N 32°58' W 049°57'0 1.0
2014-Oct-21 03:01N 32°57' W 049°57'3 0.9
2014-Oct-20 23:30N 32°54' W 049°57'0 1.0
2014-Oct-20 23:00N 32°53' W 049°57'1 0.9
2014-Oct-20 22:01N 32°53' W 049°57'0 0.6
2014-Oct-20 21:31N 32°52' W 049°57'0 0.5
2014-Oct-20 21:00N 32°52' W 049°56'2 0.5
2014-Oct-20 17:31N 32°51' W 049°55'0 0.3
2014-Oct-20 17:01N 32°51' W 049°55'0 0.2
2014-Oct-20 15:00N 32°50' W 049°55'0 0.4
2014-Oct-20 14:01N 32°50' W 049°55'0 0.2
2014-Oct-20 13:31N 32°50' W 049°55'0 0.3
2014-Oct-20 12:01N 32°50' W 049°56'0 0.5
2014-Oct-20 11:31N 32°50' W 049°56'1 0.7
2014-Oct-20 09:31N 32°49' W 049°57'0 0.9
2014-Oct-20 09:01N 32°49' W 049°58'0 0.9
2014-Oct-20 08:31N 32°48' W 049°58'0 1.0
2014-Oct-20 08:01N 32°48' W 049°58'3 1.0
2014-Oct-20 05:00N 32°45' W 049°59'3 0.9
2014-Oct-20 01:30N 32°42' W 049°58'0 1.0
2014-Oct-20 01:00N 32°41' W 049°58'1 1.0
2014-Oct-20 00:01N 32°41' W 049°57'1 0.9
2014-Oct-19 23:01N 32°40' W 049°56'4 0.9
2014-Oct-19 18:31N 32°36' W 049°54'0 0.8
2014-Oct-19 18:01N 32°36' W 049°53'1 0.6
2014-Oct-19 17:01N 32°36' W 049°53'0 0.5
2014-Oct-19 16:31N 32°36' W 049°52'1 0.2
2014-Oct-19 10:31N 32°35' W 049°53'0 0.7
2014-Oct-19 10:01N 32°35' W 049°53'0 0.7
2014-Oct-19 09:30N 32°34' W 049°54'0 0.8
2014-Oct-19 09:00N 32°34' W 049°54'0 0.7
2014-Oct-19 08:30N 32°34' W 049°54'0 0.8
2014-Oct-19 08:00N 32°33' W 049°54'1 1.0
2014-Oct-19 07:30N 32°33' W 049°54'0 0.9
2014-Oct-19 07:01N 32°32' W 049°54'3 1.0
2014-Oct-19 04:01N 32°29' W 049°53'2 1.0
2014-Oct-19 02:01N 32°28' W 049°52'0 0.9
2014-Oct-19 01:31N 32°27' W 049°52'1 1.1
2014-Oct-19 01:00N 32°27' W 049°51'2 0.9
2014-Oct-18 23:00N 32°26' W 049°49'0 0.9
2014-Oct-18 22:30N 32°26' W 049°49'1 0.7
2014-Oct-18 21:00N 32°25' W 049°48'1 0.3
2014-Oct-18 17:31N 32°26' W 049°47'0 0.1
2014-Oct-18 17:00N 32°26' W 049°47'0 0.2
2014-Oct-18 15:31N 32°25' W 049°47'0 0.4
2014-Oct-18 15:01N 32°25' W 049°47'2 0.5
2014-Oct-18 11:01N 32°23' W 049°47'3 0.8
2014-Oct-18 07:31N 32°20' W 049°46'1 1.0
2014-Oct-18 07:01N 32°20' W 049°46'1 1.0
2014-Oct-18 06:00N 32°19' W 049°45'1 1.1
2014-Oct-18 05:30N 32°19' W 049°45'7 0.8
2014-Oct-17 21:01N 32°17' W 049°37'0 0.5
2014-Oct-17 20:31N 32°18' W 049°37'0 0.2
2014-Oct-17 18:01N 32°18' W 049°37'2 0.4
2014-Oct-17 14:01N 32°16' W 049°37'4 0.7
2014-Oct-17 08:01N 32°12' W 049°35'0 0.7
2014-Oct-17 07:31N 32°12' W 049°35'4 0.7
2014-Oct-17 01:01N 32°11' W 049°30'0 0.4
2014-Oct-17 00:31N 32°11' W 049°30'0 0.4
2014-Oct-17 00:00N 32°11' W 049°30'2 0.2
2014-Oct-16 12:01N 32°09' W 049°30'0 0.7
2014-Oct-16 11:31N 32°09' W 049°30'2 0.6
2014-Oct-16 09:01N 32°08' W 049°29'6 0.6
2014-Oct-15 23:01N 32°07' W 049°22'1 0.3
2014-Oct-15 20:00N 32°08' W 049°22'1 0.3
2014-Oct-15 18:01N 32°08' W 049°23'1 0.6
2014-Oct-15 16:01N 32°06' W 049°23'7 0.8
2014-Oct-15 07:01N 32°03' W 049°15'1 1.0
2014-Oct-15 06:31N 32°03' W 049°15'0 1.0
2014-Oct-15 06:01N 32°03' W 049°14'4 0.7
2014-Oct-15 00:01N 32°06' W 049°10'1 0.5
2014-Oct-14 23:00N 32°06' W 049°10'0 0.5
2014-Oct-14 22:30N 32°07' W 049°10'1 0.6
2014-Oct-14 20:31N 32°08' W 049°11'0 0.5
2014-Oct-14 20:01N 32°08' W 049°11'1 0.2
2014-Oct-14 16:31N 32°08' W 049°12'0 0.5
2014-Oct-14 16:01N 32°07' W 049°12'3 0.7
2014-Oct-14 11:30N 32°05' W 049°09'1 1.1
2014-Oct-14 11:00N 32°05' W 049°08'4 1.3
2014-Oct-14 08:01N 32°06' W 049°04'5 1.5
2014-Oct-14 05:01N 32°09' W 048°59'8 1.4
2014-Oct-13 23:30N 32°17' W 048°58'1 1.3
2014-Oct-13 23:00N 32°17' W 048°58'1 1.0
2014-Oct-13 22:31N 32°18' W 048°59'1 1.0
2014-Oct-13 22:01N 32°18' W 048°59'1 1.1
2014-Oct-13 21:01N 32°18' W 049°01'6 0.9
2014-Oct-13 14:01N 32°17' W 049°08'2 0.8
2014-Oct-13 12:01N 32°16' W 049°10'1 0.6
2014-Oct-13 10:01N 32°16' W 049°11'1 0.6
2014-Oct-13 09:01N 32°15' W 049°12'0 0.6
2014-Oct-13 08:31N 32°15' W 049°12'0 0.6
2014-Oct-13 08:01N 32°15' W 049°12'0 0.5
2014-Oct-13 07:01N 32°15' W 049°13'1 0.6
2014-Oct-13 05:01N 32°14' W 049°14'3 0.7
2014-Oct-13 01:31N 32°11' W 049°14'0 0.8
2014-Oct-13 01:01N 32°11' W 049°14'0 0.7
2014-Oct-13 00:31N 32°11' W 049°14'0 0.6
2014-Oct-13 00:01N 32°10' W 049°14'1 0.4
2014-Oct-12 22:00N 32°10' W 049°13'0 0.1
2014-Oct-12 19:01N 32°09' W 049°13'0 0.1
2014-Oct-12 18:31N 32°09' W 049°13'0 0.3
2014-Oct-12 18:01N 32°09' W 049°13'1 0.3
2014-Oct-12 14:01N 32°08' W 049°13'2 0.8
2014-Oct-12 11:31N 32°06' W 049°13'0 0.8
2014-Oct-12 11:01N 32°06' W 049°13'2 1.1
2014-Oct-12 09:01N 32°04' W 049°13'2 1.0
2014-Oct-12 07:30N 32°02' W 049°12'0 0.9
2014-Oct-12 07:00N 32°02' W 049°12'3 0.8
2014-Oct-12 03:31N 31°59' W 049°11'0 0.5
2014-Oct-12 03:01N 31°59' W 049°10'1 0.5
2014-Oct-12 01:00N 31°59' W 049°09'0 0.5
2014-Oct-12 00:30N 31°59' W 049°09'0 0.4
2014-Oct-12 00:01N 31°59' W 049°09'0 0.2
2014-Oct-11 23:31N 31°59' W 049°09'0 0.2
2014-Oct-11 23:00N 31°59' W 049°09'0 0.2
2014-Oct-11 21:31N 31°58' W 049°09'0 0.3
2014-Oct-11 21:01N 31°58' W 049°09'0 0.2
2014-Oct-11 19:30N 31°58' W 049°08'0 0.1
2014-Oct-11 19:00N 31°58' W 049°08'0 0.1
2014-Oct-11 17:01N 31°58' W 049°09'0 0.1
2014-Oct-11 16:31N 31°58' W 049°09'0 0.1
2014-Oct-11 13:01N 31°57' W 049°09'1 0.4
2014-Oct-11 11:00N 31°57' W 049°09'  
Track history (hours):
 
Tides and Currents Weather Stations Pressure Air Temp Water Temp Dewpoint Dewpoint Depression Visibility Wind Speed Wind Dir Waves Ship Positions

Drifting buoy 41602

Last reported at 2014-Oct-21 09:01 UTC. Time now 2014-Oct-21 13:47 UTC.
Position N 33°02' W 049°53'.

Date/timePositionNaut miles runAvg speedWind from/ knotsBaromVisibWave heightAir tempDewpointWater temp
2014-Oct-21 09:01N 33°02' W 049°53'0 0.9
2014-Oct-21 08:31N 33°02' W 049°54'0 0.9
2014-Oct-21 08:01N 33°01' W 049°54'0 0.9
2014-Oct-21 07:31N 33°01' W 049°55'0 0.9
2014-Oct-21 07:01N 33°01' W 049°55'1 0.9
2014-Oct-21 05:31N 32°60' W 049°56'0 0.9
2014-Oct-21 05:01N 32°59' W 049°56'1 1.1
2014-Oct-21 04:30N 32°59' W 049°57'0 1.0
2014-Oct-21 04:00N 32°58' W 049°57'0 1.0
2014-Oct-21 03:31N 32°58' W 049°57'0 1.0
2014-Oct-21 03:01N 32°57' W 049°57'3 0.9
2014-Oct-20 23:30N 32°54' W 049°57'0 1.0
2014-Oct-20 23:00N 32°53' W 049°57'1 0.9
2014-Oct-20 22:01N 32°53' W 049°57'0 0.6
2014-Oct-20 21:31N 32°52' W 049°57'0 0.5
2014-Oct-20 21:00N 32°52' W 049°56'2 0.5
2014-Oct-20 17:31N 32°51' W 049°55'0 0.3
2014-Oct-20 17:01N 32°51' W 049°55'0 0.2
2014-Oct-20 15:00N 32°50' W 049°55'0 0.4
2014-Oct-20 14:01N 32°50' W 049°55'0 0.2
2014-Oct-20 13:31N 32°50' W 049°55'0 0.3
2014-Oct-20 12:01N 32°50' W 049°56'0 0.5
2014-Oct-20 11:31N 32°50' W 049°56'1 0.7
2014-Oct-20 09:31N 32°49' W 049°57'0 0.9
2014-Oct-20 09:01N 32°49' W 049°58'0 0.9
2014-Oct-20 08:31N 32°48' W 049°58'0 1.0
2014-Oct-20 08:01N 32°48' W 049°58'3 1.0
2014-Oct-20 05:00N 32°45' W 049°59'3 0.9
2014-Oct-20 01:30N 32°42' W 049°58'0 1.0
2014-Oct-20 01:00N 32°41' W 049°58'1 1.0
2014-Oct-20 00:01N 32°41' W 049°57'1 0.9
2014-Oct-19 23:01N 32°40' W 049°56'4 0.9
2014-Oct-19 18:31N 32°36' W 049°54'0 0.8
2014-Oct-19 18:01N 32°36' W 049°53'1 0.6
2014-Oct-19 17:01N 32°36' W 049°53'0 0.5
2014-Oct-19 16:31N 32°36' W 049°52'1 0.2
2014-Oct-19 10:31N 32°35' W 049°53'0 0.7
2014-Oct-19 10:01N 32°35' W 049°53'0 0.7
2014-Oct-19 09:30N 32°34' W 049°54'0 0.8
2014-Oct-19 09:00N 32°34' W 049°54'0 0.7
2014-Oct-19 08:30N 32°34' W 049°54'0 0.8
2014-Oct-19 08:00N 32°33' W 049°54'1 1.0
2014-Oct-19 07:30N 32°33' W 049°54'0 0.9
2014-Oct-19 07:01N 32°32' W 049°54'3 1.0
2014-Oct-19 04:01N 32°29' W 049°53'2 1.0
2014-Oct-19 02:01N 32°28' W 049°52'0 0.9
2014-Oct-19 01:31N 32°27' W 049°52'1 1.1
2014-Oct-19 01:00N 32°27' W 049°51'2 0.9
2014-Oct-18 23:00N 32°26' W 049°49'0 0.9
2014-Oct-18 22:30N 32°26' W 049°49'1 0.7
2014-Oct-18 21:00N 32°25' W 049°48'1 0.3
2014-Oct-18 17:31N 32°26' W 049°47'0 0.1
2014-Oct-18 17:00N 32°26' W 049°47'0 0.2
2014-Oct-18 15:31N 32°25' W 049°47'0 0.4
2014-Oct-18 15:01N 32°25' W 049°47'2 0.5
2014-Oct-18 11:01N 32°23' W 049°47'3 0.8
2014-Oct-18 07:31N 32°20' W 049°46'1 1.0
2014-Oct-18 07:01N 32°20' W 049°46'1 1.0
2014-Oct-18 06:00N 32°19' W 049°45'1 1.1
2014-Oct-18 05:30N 32°19' W 049°45'7 0.8
2014-Oct-17 21:01N 32°17' W 049°37'0 0.5
2014-Oct-17 20:31N 32°18' W 049°37'0 0.2
2014-Oct-17 18:01N 32°18' W 049°37'2 0.4
2014-Oct-17 14:01N 32°16' W 049°37'4 0.7
2014-Oct-17 08:01N 32°12' W 049°35'0 0.7
2014-Oct-17 07:31N 32°12' W 049°35'4 0.7
2014-Oct-17 01:01N 32°11' W 049°30'0 0.4
2014-Oct-17 00:31N 32°11' W 049°30'0 0.4
2014-Oct-17 00:00N 32°11' W 049°30'2 0.2
2014-Oct-16 12:01N 32°09' W 049°30'0 0.7
2014-Oct-16 11:31N 32°09' W 049°30'2 0.6
2014-Oct-16 09:01N 32°08' W 049°29'6 0.6
2014-Oct-15 23:01N 32°07' W 049°22'1 0.3
2014-Oct-15 20:00N 32°08' W 049°22'1 0.3
2014-Oct-15 18:01N 32°08' W 049°23'1 0.6
2014-Oct-15 16:01N 32°06' W 049°23'7 0.8
2014-Oct-15 07:01N 32°03' W 049°15'1 1.0
2014-Oct-15 06:31N 32°03' W 049°15'0 1.0
2014-Oct-15 06:01N 32°03' W 049°14'4 0.7
2014-Oct-15 00:01N 32°06' W 049°10'1 0.5
2014-Oct-14 23:00N 32°06' W 049°10'0 0.5
2014-Oct-14 22:30N 32°07' W 049°10'1 0.6
2014-Oct-14 20:31N 32°08' W 049°11'0 0.5
2014-Oct-14 20:01N 32°08' W 049°11'1 0.2
2014-Oct-14 16:31N 32°08' W 049°12'0 0.5
2014-Oct-14 16:01N 32°07' W 049°12'3 0.7
2014-Oct-14 11:30N 32°05' W 049°09'1 1.1
2014-Oct-14 11:00N 32°05' W 049°08'4 1.3
2014-Oct-14 08:01N 32°06' W 049°04'5 1.5
2014-Oct-14 05:01N 32°09' W 048°59'8 1.4
2014-Oct-13 23:30N 32°17' W 048°58'1 1.3
2014-Oct-13 23:00N 32°17' W 048°58'1 1.0
2014-Oct-13 22:31N 32°18' W 048°59'1 1.0
2014-Oct-13 22:01N 32°18' W 048°59'1 1.1
2014-Oct-13 21:01N 32°18' W 049°01'6 0.9
2014-Oct-13 14:01N 32°17' W 049°08'2 0.8
2014-Oct-13 12:01N 32°16' W 049°10'1 0.6
2014-Oct-13 10:01N 32°16' W 049°11'1 0.6
2014-Oct-13 09:01N 32°15' W 049°12'0 0.6
2014-Oct-13 08:31N 32°15' W 049°12'0 0.6
2014-Oct-13 08:01N 32°15' W 049°12'0 0.5
2014-Oct-13 07:01N 32°15' W 049°13'1 0.6
2014-Oct-13 05:01N 32°14' W 049°14'3 0.7
2014-Oct-13 01:31N 32°11' W 049°14'0 0.8
2014-Oct-13 01:01N 32°11' W 049°14'0 0.7
2014-Oct-13 00:31N 32°11' W 049°14'0 0.6
2014-Oct-13 00:01N 32°10' W 049°14'1 0.4
2014-Oct-12 22:00N 32°10' W 049°13'0 0.1
2014-Oct-12 19:01N 32°09' W 049°13'0 0.1
2014-Oct-12 18:31N 32°09' W 049°13'0 0.3
2014-Oct-12 18:01N 32°09' W 049°13'1 0.3
2014-Oct-12 14:01N 32°08' W 049°13'2 0.8
2014-Oct-12 11:31N 32°06' W 049°13'0 0.8
2014-Oct-12 11:01N 32°06' W 049°13'2 1.1
2014-Oct-12 09:01N 32°04' W 049°13'2 1.0
2014-Oct-12 07:30N 32°02' W 049°12'0 0.9
2014-Oct-12 07:00N 32°02' W 049°12'3 0.8
2014-Oct-12 03:31N 31°59' W 049°11'0 0.5
2014-Oct-12 03:01N 31°59' W 049°10'1 0.5
2014-Oct-12 01:00N 31°59' W 049°09'0 0.5
2014-Oct-12 00:30N 31°59' W 049°09'0 0.4
2014-Oct-12 00:01N 31°59' W 049°09'0 0.2
2014-Oct-11 23:31N 31°59' W 049°09'0 0.2
2014-Oct-11 23:00N 31°59' W 049°09'0 0.2
2014-Oct-11 21:31N 31°58' W 049°09'0 0.3
2014-Oct-11 21:01N 31°58' W 049°09'0 0.2
2014-Oct-11 19:30N 31°58' W 049°08'0 0.1
2014-Oct-11 19:00N 31°58' W 049°08'0 0.1
2014-Oct-11 17:01N 31°58' W 049°09'0 0.1
2014-Oct-11 16:31N 31°58' W 049°09'0 0.1
2014-Oct-11 13:01N 31°57' W 049°09'1 0.4
2014-Oct-11 11:00N 31°57' W 049°09'  

Dump ship's entire track history